Time;durP1;ratioP1;P1;durP2;ratioP2;P2;SDS_P1;SDS_P2;PMS_P1;PMS_P2;Temp;Humidity;BMP_temperature;BMP_pressure;BME280_temperature;BME280_humidity;BME280_pressure;Samples;Min_cycle;Max_cycle;Signal;HPM_P1;HPM_P2
2023/07/29 00:09:23;;;;;;;2.83;1.70;;;;;;;17.60;100.00;97383.19;18434410;32;20091;-58
2023/07/29 00:19:28;;;;;;;1.73;1.47;;;;;;;17.44;100.00;97369.19;18418171;32;20074;-58
2023/07/29 00:29:31;;;;;;;2.05;1.50;;;;;;;17.33;100.00;97367.91;18430358;32;20066;-58
2023/07/29 00:39:34;;;;;;;1.83;1.27;;;;;;;17.33;100.00;97356.97;18433324;32;20057;-58
2023/07/29 00:49:37;;;;;;;2.00;1.35;;;;;;;17.31;100.00;97353.75;18432283;32;20058;-58
2023/07/29 00:59:42;;;;;;;2.95;1.60;;;;;;;17.33;100.00;97348.78;18432230;32;20073;-58
2023/07/29 01:10:16;;;;;;;2.40;1.42;;;;;;;17.35;100.00;97335.59;18417391;32;20386;-58
2023/07/29 01:20:20;;;;;;;2.27;1.80;;;;;;;17.37;100.00;97345.06;18431425;32;20065;-58
2023/07/29 01:30:29;;;;;;;1.95;1.50;;;;;;;17.44;100.00;97352.78;18430927;32;20111;-58
2023/07/29 01:40:33;;;;;;;2.47;1.20;;;;;;;17.52;100.00;97354.72;18430903;32;20069;-58
2023/07/29 01:50:36;;;;;;;2.60;1.52;;;;;;;17.57;100.00;97348.28;18430536;32;20062;-58
2023/07/29 02:00:39;;;;;;;3.83;1.40;;;;;;;17.57;100.00;97345.56;18430270;32;20342;-58
2023/07/29 02:10:44;;;;;;;2.70;1.57;;;;;;;17.57;100.00;97338.16;18409499;32;20069;-58
2023/07/29 02:20:49;;;;;;;2.40;1.30;;;;;;;17.52;100.00;97346.50;18430195;32;20053;-58
2023/07/29 02:31:12;;;;;;;1.95;1.55;;;;;;;17.47;100.00;97322.06;18438420;32;20057;-58
2023/07/29 02:41:16;;;;;;;2.53;1.40;;;;;;;17.41;100.00;97345.25;18427016;32;20076;-58
2023/07/29 02:51:19;;;;;;;2.22;1.52;;;;;;;17.36;100.00;97342.66;18440155;32;20057;-58
2023/07/29 03:01:24;;;;;;;2.80;1.83;;;;;;;17.36;100.00;97331.72;18439140;32;20061;-58
2023/07/29 03:11:27;;;;;;;1.98;1.55;;;;;;;17.36;100.00;97346.22;18438891;32;20105;-58
2023/07/29 03:21:30;;;;;;;2.40;1.60;;;;;;;17.39;100.00;97326.44;18438436;32;20338;-58
2023/07/29 03:31:32;;;;;;;2.55;1.48;;;;;;;17.34;100.00;97329.31;18437397;32;20062;-58
2023/07/29 03:41:36;;;;;;;2.07;1.40;;;;;;;17.35;100.00;97330.12;18435893;32;20069;-58
2023/07/29 03:51:39;;;;;;;2.30;1.70;;;;;;;17.32;100.00;97317.94;18435937;32;20070;-58
2023/07/29 04:01:41;;;;;;;3.23;1.53;;;;;;;17.16;100.00;97320.34;18429067;32;20069;-58
2023/07/29 04:11:45;;;;;;;1.83;1.55;;;;;;;17.04;100.00;97312.00;18421134;32;20365;-58
2023/07/29 04:21:50;;;;;;;2.20;1.55;;;;;;;17.00;100.00;97321.94;18420578;32;20095;-58
2023/07/29 04:31:53;;;;;;;2.08;1.48;;;;;;;17.04;100.00;97337.38;18419313;32;20053;-59
2023/07/29 04:41:57;;;;;;;1.73;1.60;;;;;;;17.05;100.00;97333.50;18433535;32;20049;-58
2023/07/29 04:52:01;;;;;;;2.60;1.65;;;;;;;17.02;100.00;97339.63;18425969;32;20058;-58
2023/07/29 05:02:06;;;;;;;2.37;1.40;;;;;;;17.07;100.00;97346.84;18419759;32;20065;-58
2023/07/29 05:12:09;;;;;;;;;;;;;;;17.22;100.00;97348.31;18431886;32;20084;-58
2023/07/29 05:22:12;;;;;;;1.87;1.15;;;;;;;17.36;100.00;97362.63;18417803;32;19989;-58
2023/07/29 05:32:14;;;;;;;2.05;1.40;;;;;;;17.68;100.00;97362.41;18430860;32;20057;-57
2023/07/29 05:42:17;;;;;;;1.83;1.15;;;;;;;18.23;100.00;97364.37;18430874;32;20073;-57
2023/07/29 05:52:19;;;;;;;2.35;1.52;;;;;;;18.34;100.00;97370.31;18430188;32;20061;-57
2023/07/29 06:02:21;;;;;;;2.08;1.40;;;;;;;18.51;100.00;97363.94;18435500;32;20065;-57
2023/07/29 06:12:24;;;;;;;1.73;1.42;;;;;;;18.91;100.00;97369.09;18442211;32;20058;-57
2023/07/29 06:22:26;;;;;;;2.45;1.98;;;;;;;19.39;100.00;97393.56;18441684;32;20486;-57
2023/07/29 06:32:29;;;;;;;3.70;2.57;;;;;;;19.97;100.00;97393.72;18440922;32;20065;-57
2023/07/29 06:42:31;;;;;;;3.73;2.30;;;;;;;20.22;100.00;97419.28;18433778;32;20103;-57
2023/07/29 06:52:36;;;;;;;3.33;2.58;;;;;;;20.14;100.00;97426.47;18374366;32;20098;-57
2023/07/29 07:02:39;;;;;;;4.75;2.40;;;;;;;20.27;100.00;97413.56;18375298;32;20084;-57
2023/07/29 07:12:43;;;;;;;2.35;2.05;;;;;;;20.42;100.00;97423.09;18373265;32;20057;-57
2023/07/29 07:22:46;;;;;;;3.78;2.30;;;;;;;20.52;100.00;97427.34;18374261;32;20399;-57
2023/07/29 07:32:50;;;;;;;2.35;1.77;;;;;;;21.04;100.00;97420.41;18372176;32;20058;-57
2023/07/29 07:42:53;;;;;;;2.22;1.83;;;;;;;21.28;100.00;97418.75;18372499;32;20118;-57
2023/07/29 07:52:56;;;;;;;;;;;;;;;21.62;100.00;97406.41;18435566;32;20084;-57
2023/07/29 08:02:58;;;;;;;1.62;1.20;;;;;;;22.16;100.00;97418.13;18435895;32;19957;-57
2023/07/29 08:13:01;;;;;;;2.00;1.60;;;;;;;22.69;100.00;97415.16;18434901;32;20110;-57
2023/07/29 08:23:04;;;;;;;2.15;1.30;;;;;;;22.94;100.00;97406.66;18420073;32;20042;-58
2023/07/29 08:33:07;;;;;;;2.28;1.60;;;;;;;23.34;100.00;97402.87;18427459;32;20092;-57
2023/07/29 08:43:14;;;;;;;1.80;1.50;;;;;;;23.69;100.00;97394.56;18432923;32;20044;-57
2023/07/29 08:53:17;;;;;;;2.53;1.40;;;;;;;24.13;100.00;97400.91;18432752;32;20057;-57
2023/07/29 09:03:20;;;;;;;2.15;1.60;;;;;;;24.45;100.00;97400.72;18432319;32;20057;-57
2023/07/29 09:13:25;;;;;;;2.75;1.60;;;;;;;24.95;100.00;97404.28;18417716;32;20448;-57
2023/07/29 09:23:28;;;;;;;2.60;2.00;;;;;;;25.52;100.00;97406.31;18431333;32;20053;-58
2023/07/29 09:33:39;;;;;;;1.90;1.55;;;;;;;25.30;100.00;97407.97;18417876;32;20073;-57
2023/07/29 09:43:41;;;;;;;2.30;1.60;;;;;;;25.10;100.00;97396.22;18430641;32;20445;-57
2023/07/29 09:53:45;;;;;;;;;;;;;;;24.98;100.00;97394.44;18429568;32;20057;-57
2023/07/29 10:03:49;;;;;;;3.20;1.95;;;;;;;25.49;100.00;97401.50;18443194;32;20000;-58
2023/07/29 10:13:53;;;;;;;2.53;1.70;;;;;;;25.62;100.00;97394.56;18427609;32;20409;-58
2023/07/29 10:24:16;;;;;;;2.70;2.10;;;;;;;26.02;100.00;97390.31;18423193;32;20065;-58
2023/07/29 10:34:20;;;;;;;1.92;1.67;;;;;;;26.51;100.00;97382.06;18441007;32;20061;-58
2023/07/29 10:44:42;;;;;;;2.87;2.08;;;;;;;26.75;100.00;97374.34;18426073;32;20416;-58
2023/07/29 10:54:47;;;;;;;2.97;2.33;;;;;;;26.83;100.00;97379.56;18440020;32;20071;-58
2023/07/29 11:04:51;;;;;;;2.97;2.47;;;;;;;27.08;100.00;97369.78;18425295;32;20106;-58
2023/07/29 11:14:55;;;;;;;3.53;2.35;;;;;;;27.39;89.22;97362.84;18424425;32;20069;-58
2023/07/29 11:24:58;;;;;;;2.62;1.95;;;;;;;27.62;90.30;97372.88;18437930;32;20076;-58
2023/07/29 11:35:07;;;;;;;3.33;2.40;;;;;;;27.32;93.97;97362.81;18437316;32;20061;-58
2023/07/29 11:45:10;;;;;;;4.07;2.70;;;;;;;27.26;88.37;97348.50;18422297;32;20054;-58
2023/07/29 11:55:15;;;;;;;3.08;2.47;;;;;;;27.21;90.80;97346.88;18422193;32;20113;-58
2023/07/29 12:05:21;;;;;;;4.05;2.35;;;;;;;26.96;89.95;97371.72;18420798;32;20096;-57
2023/07/29 12:15:29;;;;;;;2.78;2.10;;;;;;;26.75;73.73;97377.94;18428574;32;20425;-57
2023/07/29 12:25:32;;;;;;;3.17;2.25;;;;;;;26.88;92.34;97383.94;18434823;32;20067;-57
2023/07/29 12:35:38;;;;;;;3.28;2.30;;;;;;;26.43;84.57;97403.34;18433729;32;20065;-57
2023/07/29 12:45:42;;;;;;;3.47;2.10;;;;;;;25.82;93.97;97414.59;18432819;32;20045;-57
2023/07/29 12:55:44;;;;;;;2.70;2.17;;;;;;;25.28;100.00;97426.91;18432789;32;20053;-57
2023/07/29 13:05:47;;;;;;;3.40;2.83;;;;;;;24.83;100.00;97405.31;18418240;32;20065;-57
2023/07/29 13:15:49;;;;;;;2.85;2.50;;;;;;;24.25;100.00;97424.81;18431530;32;20377;-57
2023/07/29 13:25:52;;;;;;;3.50;2.50;;;;;;;23.80;100.00;97447.22;18417586;32;20102;-57
2023/07/29 13:35:55;;;;;;;2.87;2.22;;;;;;;23.51;100.00;97454.09;18417153;32;20083;-57
2023/07/29 13:45:58;;;;;;;5.00;2.97;;;;;;;23.26;100.00;97468.13;18416322;32;20055;-58
2023/07/29 13:56:00;;;;;;;5.53;2.47;;;;;;;23.17;100.00;97468.31;18416301;32;20105;-57
2023/07/29 14:06:03;;;;;;;;;;;;;;;23.10;100.00;97473.62;18430095;32;20069;-57
2023/07/29 14:16:06;;;;;;;2.30;1.70;;;;;;;22.93;100.00;97472.06;18430299;32;20253;-57
2023/07/29 14:26:09;;;;;;;2.40;1.85;;;;;;;22.50;100.00;97484.72;18424895;32;20071;-57
2023/07/29 14:36:12;;;;;;;4.18;1.80;;;;;;;22.14;100.00;97490.03;18414248;32;20049;-57
2023/07/29 14:46:14;;;;;;;2.30;1.80;;;;;;;21.92;100.00;97498.88;18425387;32;20100;-57
2023/07/29 14:56:17;;;;;;;2.00;1.30;;;;;;;21.65;100.00;97513.03;18419324;32;20065;-57
2023/07/29 15:06:22;;;;;;;2.55;1.87;;;;;;;21.43;100.00;97491.50;18439741;32;20049;-58
2023/07/29 15:16:25;;;;;;;4.87;1.80;;;;;;;21.16;100.00;97485.56;18438990;32;20339;-58
2023/07/29 15:26:28;;;;;;;2.72;1.80;;;;;;;21.08;100.00;97470.00;18438449;32;20065;-58
2023/07/29 15:36:31;;;;;;;3.03;2.00;;;;;;;21.14;100.00;97454.84;18438037;32;20381;-57
2023/07/29 15:46:33;;;;;;;2.20;1.90;;;;;;;21.19;100.00;97446.38;18422389;32;20131;-57
2023/07/29 15:56:38;;;;;;;2.28;2.00;;;;;;;21.31;100.00;97443.62;18436030;32;20126;-58
2023/07/29 16:06:42;;;;;;;3.12;2.10;;;;;;;21.76;100.00;97452.00;18409450;32;20456;-58
2023/07/29 16:16:45;;;;;;;2.70;1.90;;;;;;;22.06;100.00;97427.69;18408037;32;20113;-58
2023/07/29 16:26:48;;;;;;;2.97;2.10;;;;;;;21.92;100.00;97421.78;18434368;32;20104;-57
2023/07/29 16:36:51;;;;;;;;;;;;;;;21.76;100.00;97410.72;18420522;32;20057;-57
2023/07/29 16:46:54;;;;;;;4.27;2.10;;;;;;;21.74;100.00;97422.09;18426171;32;19959;-58
2023/07/29 16:56:57;;;;;;;;;;;;;;;21.86;100.00;97413.00;18432829;32;20157;-58
2023/07/29 17:07:00;;;;;;;3.20;2.67;;;;;;;21.96;100.00;97425.44;18432435;32;19954;-58
2023/07/29 17:17:03;;;;;;;3.50;2.40;;;;;;;21.86;100.00;97415.75;18431863;32;20071;-58
2023/07/29 17:27:06;;;;;;;3.20;2.70;;;;;;;21.74;100.00;97426.81;18417462;32;20049;-58
2023/07/29 17:37:09;;;;;;;;;;;;;;;21.59;100.00;97434.63;18410702;32;20053;-58
2023/07/29 17:47:14;;;;;;;2.30;2.00;;;;;;;21.48;100.00;97430.75;18404236;32;19997;-58
2023/07/29 17:57:17;;;;;;;3.92;2.42;;;;;;;21.50;100.00;97436.69;18434720;32;20405;-58
2023/07/29 18:07:20;;;;;;;3.03;2.40;;;;;;;21.45;100.00;97431.44;18428961;32;20049;-57
2023/07/29 18:17:23;;;;;;;3.53;2.67;;;;;;;21.26;100.00;97427.34;18428504;32;20056;-58
2023/07/29 18:27:27;;;;;;;3.50;2.20;;;;;;;21.08;100.00;97426.81;18425232;32;20057;-58
2023/07/29 18:37:31;;;;;;;3.40;2.72;;;;;;;20.87;100.00;97429.69;18424152;32;20391;-58
2023/07/29 18:47:35;;;;;;;3.35;2.05;;;;;;;20.62;100.00;97435.16;18425964;32;20104;-58
2023/07/29 18:57:39;;;;;;;2.62;2.35;;;;;;;20.42;100.00;97427.78;18426156;32;20110;-58
2023/07/29 19:07:42;;;;;;;3.10;2.40;;;;;;;20.25;100.00;97429.56;18425184;32;20077;-58
2023/07/29 19:17:45;;;;;;;4.25;2.42;;;;;;;20.09;100.00;97410.22;18424462;32;20057;-58
2023/07/29 19:27:47;;;;;;;3.07;2.23;;;;;;;19.91;100.00;97401.37;18417473;32;20061;-58
2023/07/29 19:37:51;;;;;;;2.60;2.40;;;;;;;19.77;100.00;97400.81;18423621;32;20343;-58
2023/07/29 19:47:54;;;;;;;3.37;2.47;;;;;;;19.71;100.00;97429.59;18422553;32;20421;-59
2023/07/29 19:57:57;;;;;;;3.40;2.37;;;;;;;19.60;100.00;97457.44;18422319;32;20419;-58
2023/07/29 20:07:59;;;;;;;3.20;2.13;;;;;;;19.45;100.00;97482.72;18409066;32;20051;-58
2023/07/29 20:18:02;;;;;;;4.93;2.40;;;;;;;19.29;100.00;97501.66;18428394;32;20066;-57
2023/07/29 20:28:05;;;;;;;2.77;2.20;;;;;;;19.15;100.00;97490.16;18420267;32;20107;-58
2023/07/29 20:38:07;;;;;;;2.63;1.63;;;;;;;18.95;100.00;97476.06;18407282;32;20110;-58
2023/07/29 20:48:10;;;;;;;3.33;2.00;;;;;;;18.81;100.00;97484.47;18406180;32;20395;-58
2023/07/29 20:58:13;;;;;;;2.80;1.80;;;;;;;18.69;100.00;97500.78;18432650;32;20070;-58
2023/07/29 21:08:16;;;;;;;2.17;1.90;;;;;;;18.55;100.00;97507.25;18432011;32;20342;-58
2023/07/29 21:18:20;;;;;;;5.47;1.80;;;;;;;18.40;100.00;97522.28;18417690;32;20056;-58
2023/07/29 21:28:22;;;;;;;3.25;1.90;;;;;;;18.43;100.00;97534.50;18417377;32;20057;-58
2023/07/29 21:38:25;;;;;;;1.45;1.35;;;;;;;18.43;100.00;97535.31;18431032;32;20387;-58
2023/07/29 21:48:31;;;;;;;3.35;1.55;;;;;;;18.45;100.00;97521.31;18430529;32;20105;-58
2023/07/29 21:58:34;;;;;;;2.37;1.60;;;;;;;18.45;100.00;97513.91;18430494;32;20069;-58
2023/07/29 22:08:37;;;;;;;4.03;1.60;;;;;;;18.39;100.00;97536.28;18423569;32;20339;-58
2023/07/29 22:18:40;;;;;;;2.43;1.53;;;;;;;18.31;100.00;97535.19;18429805;32;20092;-58
2023/07/29 22:28:42;;;;;;;3.83;1.80;;;;;;;18.19;100.00;97533.09;18429659;32;20073;-58
2023/07/29 22:38:45;;;;;;;3.37;1.67;;;;;;;18.15;100.00;97532.13;18429333;32;20057;-57
2023/07/29 22:48:47;;;;;;;2.30;1.65;;;;;;;18.03;100.00;97519.09;18438759;32;20054;-58
2023/07/29 22:58:50;;;;;;;3.50;1.33;;;;;;;17.93;100.00;97525.69;18440069;32;20053;-58
2023/07/29 23:08:52;;;;;;;4.70;1.48;;;;;;;17.83;100.00;97536.94;18439177;32;20117;-57
2023/07/29 23:18:55;;;;;;;1.58;1.35;;;;;;;17.71;100.00;97536.78;18411961;32;20061;-57
2023/07/29 23:28:57;;;;;;;4.50;1.45;;;;;;;17.64;100.00;97533.69;18438429;32;20083;-58
2023/07/29 23:38:59;;;;;;;3.70;1.50;;;;;;;17.52;100.00;97539.81;18423707;32;20459;-58
2023/07/29 23:49:03;;;;;;;3.25;1.30;;;;;;;17.41;100.00;97553.75;18436537;32;20509;-58
2023/07/29 23:59:05;;;;;;;4.18;1.80;;;;;;;17.32;100.00;97554.84;18435417;32;20064;-58
